sensor_id;sensor_type;location;lat;lon;timestamp;P1;durP1;ratioP1;P2;durP2;ratioP2
43184;SDS011;28803;52.308;19.096;2023-03-14T00:01:50;5.65;;;3.08;;
43184;SDS011;28803;52.308;19.096;2023-03-14T00:04:17;8.63;;;2.58;;
43184;SDS011;28803;52.308;19.096;2023-03-14T00:06:45;7.53;;;2.88;;
43184;SDS011;28803;52.308;19.096;2023-03-14T00:09:13;4.72;;;2.30;;
43184;SDS011;28803;52.308;19.096;2023-03-14T00:11:41;6.80;;;2.35;;
43184;SDS011;28803;52.308;19.096;2023-03-14T00:14:08;8.18;;;3.00;;
43184;SDS011;28803;52.308;19.096;2023-03-14T00:16:36;4.40;;;2.22;;
43184;SDS011;28803;52.308;19.096;2023-03-14T00:19:03;5.60;;;2.28;;
43184;SDS011;28803;52.308;19.096;2023-03-14T00:21:31;5.55;;;2.42;;
43184;SDS011;28803;52.308;19.096;2023-03-14T00:23:58;6.95;;;2.47;;
43184;SDS011;28803;52.308;19.096;2023-03-14T00:26:25;5.35;;;2.78;;
43184;SDS011;28803;52.308;19.096;2023-03-14T00:28:53;6.35;;;2.15;;
43184;SDS011;28803;52.308;19.096;2023-03-14T00:31:21;7.78;;;2.35;;
43184;SDS011;28803;52.308;19.096;2023-03-14T00:33:51;7.72;;;3.40;;
43184;SDS011;28803;52.308;19.096;2023-03-14T00:36:19;7.25;;;2.92;;
43184;SDS011;28803;52.308;19.096;2023-03-14T00:38:48;5.53;;;2.58;;
43184;SDS011;28803;52.308;19.096;2023-03-14T00:41:18;5.82;;;2.80;;
43184;SDS011;28803;52.308;19.096;2023-03-14T00:43:49;4.57;;;2.07;;
43184;SDS011;28803;52.308;19.096;2023-03-14T00:46:17;4.85;;;2.00;;
43184;SDS011;28803;52.308;19.096;2023-03-14T00:48:45;5.72;;;2.10;;
43184;SDS011;28803;52.308;19.096;2023-03-14T00:51:13;6.43;;;2.35;;
43184;SDS011;28803;52.308;19.096;2023-03-14T00:53:41;3.95;;;1.85;;
43184;SDS011;28803;52.308;19.096;2023-03-14T00:56:10;4.70;;;2.45;;
43184;SDS011;28803;52.308;19.096;2023-03-14T00:58:38;6.35;;;2.05;;
43184;SDS011;28803;52.308;19.096;2023-03-14T01:01:10;5.00;;;2.15;;
43184;SDS011;28803;52.308;19.096;2023-03-14T01:03:40;3.95;;;2.17;;
43184;SDS011;28803;52.308;19.096;2023-03-14T01:08:40;5.35;;;2.13;;
43184;SDS011;28803;52.308;19.096;2023-03-14T01:11:08;5.25;;;1.88;;
43184;SDS011;28803;52.308;19.096;2023-03-14T01:13:36;6.57;;;2.25;;
43184;SDS011;28803;52.308;19.096;2023-03-14T01:16:04;4.28;;;1.80;;
43184;SDS011;28803;52.308;19.096;2023-03-14T01:18:33;6.47;;;2.10;;
43184;SDS011;28803;52.308;19.096;2023-03-14T01:21:09;8.00;;;2.28;;
43184;SDS011;28803;52.308;19.096;2023-03-14T01:23:38;5.97;;;2.03;;
43184;SDS011;28803;52.308;19.096;2023-03-14T01:26:09;5.47;;;2.80;;
43184;SDS011;28803;52.308;19.096;2023-03-14T01:28:38;5.82;;;2.28;;
43184;SDS011;28803;52.308;19.096;2023-03-14T01:31:06;7.82;;;2.33;;
43184;SDS011;28803;52.308;19.096;2023-03-14T01:33:35;4.10;;;2.17;;
43184;SDS011;28803;52.308;19.096;2023-03-14T01:36:03;7.40;;;2.05;;
43184;SDS011;28803;52.308;19.096;2023-03-14T01:38:31;8.85;;;2.22;;
43184;SDS011;28803;52.308;19.096;2023-03-14T01:41:00;7.15;;;3.08;;
43184;SDS011;28803;52.308;19.096;2023-03-14T01:43:28;6.88;;;2.13;;
43184;SDS011;28803;52.308;19.096;2023-03-14T01:51:11;3.67;;;1.55;;
43184;SDS011;28803;52.308;19.096;2023-03-14T01:53:41;5.82;;;1.80;;
43184;SDS011;28803;52.308;19.096;2023-03-14T01:56:11;7.15;;;2.50;;
43184;SDS011;28803;52.308;19.096;2023-03-14T01:58:42;6.65;;;2.50;;
43184;SDS011;28803;52.308;19.096;2023-03-14T02:01:13;5.85;;;1.60;;
43184;SDS011;28803;52.308;19.096;2023-03-14T02:03:46;3.95;;;1.98;;
43184;SDS011;28803;52.308;19.096;2023-03-14T02:06:17;3.50;;;1.40;;
43184;SDS011;28803;52.308;19.096;2023-03-14T02:08:48;7.78;;;2.35;;
43184;SDS011;28803;52.308;19.096;2023-03-14T02:11:16;6.55;;;2.60;;
43184;SDS011;28803;52.308;19.096;2023-03-14T02:13:44;5.75;;;1.98;;
43184;SDS011;28803;52.308;19.096;2023-03-14T02:16:12;6.47;;;2.20;;
43184;SDS011;28803;52.308;19.096;2023-03-14T02:18:40;3.05;;;1.75;;
43184;SDS011;28803;52.308;19.096;2023-03-14T02:21:12;4.78;;;1.90;;
43184;SDS011;28803;52.308;19.096;2023-03-14T02:26:15;6.03;;;2.03;;
43184;SDS011;28803;52.308;19.096;2023-03-14T02:28:49;6.57;;;2.15;;
43184;SDS011;28803;52.308;19.096;2023-03-14T02:31:17;4.85;;;1.70;;
43184;SDS011;28803;52.308;19.096;2023-03-14T02:33:44;4.55;;;1.90;;
43184;SDS011;28803;52.308;19.096;2023-03-14T02:36:12;4.63;;;2.20;;
43184;SDS011;28803;52.308;19.096;2023-03-14T02:41:14;3.50;;;1.75;;
43184;SDS011;28803;52.308;19.096;2023-03-14T02:43:42;4.20;;;1.80;;
43184;SDS011;28803;52.308;19.096;2023-03-14T02:46:10;3.78;;;1.95;;
43184;SDS011;28803;52.308;19.096;2023-03-14T02:48:41;5.03;;;2.03;;
43184;SDS011;28803;52.308;19.096;2023-03-14T02:51:13;7.15;;;2.05;;
43184;SDS011;28803;52.308;19.096;2023-03-14T02:53:41;4.15;;;1.88;;
43184;SDS011;28803;52.308;19.096;2023-03-14T02:56:09;4.80;;;1.67;;
43184;SDS011;28803;52.308;19.096;2023-03-14T02:58:36;4.95;;;1.75;;
43184;SDS011;28803;52.308;19.096;2023-03-14T03:01:04;3.58;;;1.73;;
43184;SDS011;28803;52.308;19.096;2023-03-14T03:03:32;6.07;;;2.05;;
43184;SDS011;28803;52.308;19.096;2023-03-14T03:06:00;4.45;;;1.90;;
43184;SDS011;28803;52.308;19.096;2023-03-14T03:08:27;3.63;;;1.92;;
43184;SDS011;28803;52.308;19.096;2023-03-14T03:10:56;6.40;;;2.35;;
43184;SDS011;28803;52.308;19.096;2023-03-14T03:13:24;6.63;;;1.67;;
43184;SDS011;28803;52.308;19.096;2023-03-14T03:15:51;3.25;;;2.13;;
43184;SDS011;28803;52.308;19.096;2023-03-14T03:18:19;8.85;;;2.35;;
43184;SDS011;28803;52.308;19.096;2023-03-14T03:20:47;4.45;;;1.65;;
43184;SDS011;28803;52.308;19.096;2023-03-14T03:23:14;5.45;;;2.03;;
43184;SDS011;28803;52.308;19.096;2023-03-14T03:25:43;6.07;;;2.00;;
43184;SDS011;28803;52.308;19.096;2023-03-14T03:28:15;4.80;;;2.05;;
43184;SDS011;28803;52.308;19.096;2023-03-14T03:30:43;3.35;;;1.83;;
43184;SDS011;28803;52.308;19.096;2023-03-14T03:33:10;5.50;;;2.28;;
43184;SDS011;28803;52.308;19.096;2023-03-14T03:35:42;6.30;;;1.90;;
43184;SDS011;28803;52.308;19.096;2023-03-14T03:38:13;4.40;;;1.80;;
43184;SDS011;28803;52.308;19.096;2023-03-14T03:40:41;5.72;;;1.95;;
43184;SDS011;28803;52.308;19.096;2023-03-14T03:43:09;4.47;;;1.58;;
43184;SDS011;28803;52.308;19.096;2023-03-14T03:45:36;5.18;;;2.35;;
43184;SDS011;28803;52.308;19.096;2023-03-14T03:48:03;3.75;;;1.63;;
43184;SDS011;28803;52.308;19.096;2023-03-14T03:50:31;6.10;;;1.90;;
43184;SDS011;28803;52.308;19.096;2023-03-14T03:52:58;5.35;;;1.73;;
43184;SDS011;28803;52.308;19.096;2023-03-14T03:55:26;5.75;;;2.47;;
43184;SDS011;28803;52.308;19.096;2023-03-14T03:57:54;5.38;;;2.40;;
43184;SDS011;28803;52.308;19.096;2023-03-14T04:00:22;4.93;;;2.00;;
43184;SDS011;28803;52.308;19.096;2023-03-14T04:02:49;5.03;;;2.17;;
43184;SDS011;28803;52.308;19.096;2023-03-14T04:05:17;4.03;;;2.17;;
43184;SDS011;28803;52.308;19.096;2023-03-14T04:07:44;5.05;;;1.70;;
43184;SDS011;28803;52.308;19.096;2023-03-14T04:10:12;3.80;;;1.60;;
43184;SDS011;28803;52.308;19.096;2023-03-14T04:12:39;5.55;;;2.22;;
43184;SDS011;28803;52.308;19.096;2023-03-14T04:15:07;5.13;;;2.00;;
43184;SDS011;28803;52.308;19.096;2023-03-14T04:17:34;5.00;;;1.98;;
43184;SDS011;28803;52.308;19.096;2023-03-14T04:20:02;5.30;;;2.08;;
43184;SDS011;28803;52.308;19.096;2023-03-14T04:22:30;5.07;;;2.20;;
43184;SDS011;28803;52.308;19.096;2023-03-14T04:24:58;6.90;;;1.70;;
43184;SDS011;28803;52.308;19.096;2023-03-14T04:27:26;5.15;;;1.92;;
43184;SDS011;28803;52.308;19.096;2023-03-14T04:29:53;4.18;;;2.10;;
43184;SDS011;28803;52.308;19.096;2023-03-14T04:32:21;3.63;;;2.10;;
43184;SDS011;28803;52.308;19.096;2023-03-14T04:34:48;6.40;;;1.90;;
43184;SDS011;28803;52.308;19.096;2023-03-14T04:37:16;4.85;;;2.58;;
43184;SDS011;28803;52.308;19.096;2023-03-14T04:39:44;4.03;;;1.67;;
43184;SDS011;28803;52.308;19.096;2023-03-14T04:42:11;4.55;;;2.25;;
43184;SDS011;28803;52.308;19.096;2023-03-14T04:44:39;4.63;;;2.15;;
43184;SDS011;28803;52.308;19.096;2023-03-14T04:47:06;6.40;;;1.90;;
43184;SDS011;28803;52.308;19.096;2023-03-14T04:49:34;11.02;;;2.83;;
43184;SDS011;28803;52.308;19.096;2023-03-14T04:52:01;4.80;;;1.90;;
43184;SDS011;28803;52.308;19.096;2023-03-14T04:54:29;3.60;;;1.83;;
43184;SDS011;28803;52.308;19.096;2023-03-14T04:56:56;4.93;;;1.70;;
43184;SDS011;28803;52.308;19.096;2023-03-14T04:59:24;6.03;;;2.55;;
43184;SDS011;28803;52.308;19.096;2023-03-14T05:01:51;9.88;;;2.53;;
43184;SDS011;28803;52.308;19.096;2023-03-14T05:04:19;6.75;;;2.95;;
43184;SDS011;28803;52.308;19.096;2023-03-14T05:06:46;5.93;;;2.05;;
43184;SDS011;28803;52.308;19.096;2023-03-14T05:09:13;3.13;;;1.92;;
43184;SDS011;28803;52.308;19.096;2023-03-14T05:11:41;4.22;;;2.40;;
43184;SDS011;28803;52.308;19.096;2023-03-14T05:14:09;6.07;;;2.15;;
43184;SDS011;28803;52.308;19.096;2023-03-14T05:16:36;7.28;;;2.10;;
43184;SDS011;28803;52.308;19.096;2023-03-14T05:19:04;5.32;;;2.00;;
43184;SDS011;28803;52.308;19.096;2023-03-14T05:21:31;3.50;;;1.65;;
43184;SDS011;28803;52.308;19.096;2023-03-14T05:23:59;7.72;;;2.13;;
43184;SDS011;28803;52.308;19.096;2023-03-14T05:26:27;7.00;;;1.67;;
43184;SDS011;28803;52.308;19.096;2023-03-14T05:28:54;5.43;;;2.40;;
43184;SDS011;28803;52.308;19.096;2023-03-14T05:31:21;2.85;;;1.83;;
43184;SDS011;28803;52.308;19.096;2023-03-14T05:33:49;6.57;;;2.58;;
43184;SDS011;28803;52.308;19.096;2023-03-14T05:36:16;6.68;;;1.65;;
43184;SDS011;28803;52.308;19.096;2023-03-14T05:38:44;6.38;;;2.38;;
43184;SDS011;28803;52.308;19.096;2023-03-14T05:41:11;7.32;;;1.88;;
43184;SDS011;28803;52.308;19.096;2023-03-14T05:43:40;6.38;;;2.20;;
43184;SDS011;28803;52.308;19.096;2023-03-14T05:46:07;8.32;;;2.80;;
43184;SDS011;28803;52.308;19.096;2023-03-14T05:48:35;6.15;;;2.45;;
43184;SDS011;28803;52.308;19.096;2023-03-14T05:51:02;4.72;;;2.33;;
43184;SDS011;28803;52.308;19.096;2023-03-14T05:53:30;5.40;;;1.83;;
43184;SDS011;28803;52.308;19.096;2023-03-14T05:55:57;6.00;;;2.25;;
43184;SDS011;28803;52.308;19.096;2023-03-14T05:58:25;4.30;;;2.22;;
43184;SDS011;28803;52.308;19.096;2023-03-14T06:00:53;5.38;;;1.88;;
43184;SDS011;28803;52.308;19.096;2023-03-14T06:03:20;6.78;;;2.70;;
43184;SDS011;28803;52.308;19.096;2023-03-14T06:05:51;5.30;;;2.33;;
43184;SDS011;28803;52.308;19.096;2023-03-14T06:08:18;5.05;;;1.90;;
43184;SDS011;28803;52.308;19.096;2023-03-14T06:10:46;6.50;;;2.22;;
43184;SDS011;28803;52.308;19.096;2023-03-14T06:13:13;4.85;;;2.08;;
43184;SDS011;28803;52.308;19.096;2023-03-14T06:15:41;4.53;;;1.98;;
43184;SDS011;28803;52.308;19.096;2023-03-14T06:18:09;4.93;;;2.10;;
43184;SDS011;28803;52.308;19.096;2023-03-14T06:20:37;6.55;;;2.03;;
43184;SDS011;28803;52.308;19.096;2023-03-14T06:23:07;8.60;;;2.45;;
43184;SDS011;28803;52.308;19.096;2023-03-14T06:25:35;5.35;;;2.65;;
43184;SDS011;28803;52.308;19.096;2023-03-14T06:28:03;5.47;;;2.50;;
43184;SDS011;28803;52.308;19.096;2023-03-14T06:30:30;4.65;;;2.33;;
43184;SDS011;28803;52.308;19.096;2023-03-14T06:32:58;6.30;;;2.42;;
43184;SDS011;28803;52.308;19.096;2023-03-14T06:35:25;6.78;;;2.20;;
43184;SDS011;28803;52.308;19.096;2023-03-14T06:37:53;4.72;;;2.30;;
43184;SDS011;28803;52.308;19.096;2023-03-14T06:40:21;4.15;;;2.50;;
43184;SDS011;28803;52.308;19.096;2023-03-14T06:42:48;5.47;;;2.28;;
43184;SDS011;28803;52.308;19.096;2023-03-14T06:45:15;4.72;;;2.88;;
43184;SDS011;28803;52.308;19.096;2023-03-14T06:47:43;4.13;;;2.03;;
43184;SDS011;28803;52.308;19.096;2023-03-14T06:50:10;5.53;;;2.35;;
43184;SDS011;28803;52.308;19.096;2023-03-14T06:52:38;6.00;;;2.50;;
43184;SDS011;28803;52.308;19.096;2023-03-14T06:55:08;4.88;;;2.50;;
43184;SDS011;28803;52.308;19.096;2023-03-14T06:57:36;6.18;;;2.50;;
43184;SDS011;28803;52.308;19.096;2023-03-14T07:00:03;4.57;;;2.30;;
43184;SDS011;28803;52.308;19.096;2023-03-14T07:02:31;4.10;;;2.03;;
43184;SDS011;28803;52.308;19.096;2023-03-14T07:05:08;3.40;;;2.10;;
43184;SDS011;28803;52.308;19.096;2023-03-14T07:07:40;3.63;;;2.25;;
43184;SDS011;28803;52.308;19.096;2023-03-14T07:10:07;5.82;;;2.20;;
43184;SDS011;28803;52.308;19.096;2023-03-14T07:12:35;6.55;;;1.80;;
43184;SDS011;28803;52.308;19.096;2023-03-14T07:15:03;4.82;;;2.05;;
43184;SDS011;28803;52.308;19.096;2023-03-14T07:17:44;6.40;;;3.03;;
43184;SDS011;28803;52.308;19.096;2023-03-14T07:20:11;8.70;;;2.10;;
43184;SDS011;28803;52.308;19.096;2023-03-14T07:22:38;4.38;;;2.17;;
43184;SDS011;28803;52.308;19.096;2023-03-14T07:25:06;5.85;;;2.20;;
43184;SDS011;28803;52.308;19.096;2023-03-14T07:27:36;5.57;;;2.33;;
43184;SDS011;28803;52.308;19.096;2023-03-14T07:30:03;3.38;;;1.95;;
43184;SDS011;28803;52.308;19.096;2023-03-14T07:32:31;7.57;;;1.98;;
43184;SDS011;28803;52.308;19.096;2023-03-14T07:34:59;4.97;;;2.00;;
43184;SDS011;28803;52.308;19.096;2023-03-14T07:37:26;7.57;;;2.85;;
43184;SDS011;28803;52.308;19.096;2023-03-14T07:39:53;3.92;;;1.98;;
43184;SDS011;28803;52.308;19.096;2023-03-14T07:42:21;5.25;;;2.40;;
43184;SDS011;28803;52.308;19.096;2023-03-14T07:44:48;6.10;;;2.13;;
43184;SDS011;28803;52.308;19.096;2023-03-14T07:47:16;5.28;;;2.20;;
43184;SDS011;28803;52.308;19.096;2023-03-14T07:49:43;5.18;;;2.17;;
43184;SDS011;28803;52.308;19.096;2023-03-14T07:52:11;3.17;;;1.70;;
43184;SDS011;28803;52.308;19.096;2023-03-14T07:54:38;2.50;;;1.70;;
43184;SDS011;28803;52.308;19.096;2023-03-14T07:57:06;2.85;;;1.48;;
43184;SDS011;28803;52.308;19.096;2023-03-14T07:59:33;6.00;;;2.05;;
43184;SDS011;28803;52.308;19.096;2023-03-14T08:02:00;4.40;;;1.80;;
43184;SDS011;28803;52.308;19.096;2023-03-14T08:04:27;4.95;;;2.10;;
43184;SDS011;28803;52.308;19.096;2023-03-14T08:06:55;4.07;;;1.70;;
43184;SDS011;28803;52.308;19.096;2023-03-14T08:09:22;5.60;;;2.10;;
43184;SDS011;28803;52.308;19.096;2023-03-14T08:11:50;3.58;;;1.77;;
43184;SDS011;28803;52.308;19.096;2023-03-14T08:14:17;3.67;;;2.05;;
43184;SDS011;28803;52.308;19.096;2023-03-14T08:16:44;4.40;;;2.38;;
43184;SDS011;28803;52.308;19.096;2023-03-14T08:19:12;6.68;;;2.47;;
43184;SDS011;28803;52.308;19.096;2023-03-14T08:21:40;5.57;;;2.28;;
43184;SDS011;28803;52.308;19.096;2023-03-14T08:24:07;5.18;;;2.28;;
43184;SDS011;28803;52.308;19.096;2023-03-14T08:26:35;6.95;;;2.30;;
43184;SDS011;28803;52.308;19.096;2023-03-14T08:29:03;7.45;;;2.22;;
43184;SDS011;28803;52.308;19.096;2023-03-14T08:31:31;5.80;;;2.30;;
43184;SDS011;28803;52.308;19.096;2023-03-14T08:33:58;3.97;;;2.20;;
43184;SDS011;28803;52.308;19.096;2023-03-14T08:36:26;4.25;;;2.53;;
43184;SDS011;28803;52.308;19.096;2023-03-14T08:38:53;8.52;;;2.42;;
43184;SDS011;28803;52.308;19.096;2023-03-14T08:41:21;7.28;;;2.63;;
43184;SDS011;28803;52.308;19.096;2023-03-14T08:43:48;5.97;;;1.90;;
43184;SDS011;28803;52.308;19.096;2023-03-14T08:46:15;5.00;;;2.13;;
43184;SDS011;28803;52.308;19.096;2023-03-14T08:48:43;6.90;;;2.47;;
43184;SDS011;28803;52.308;19.096;2023-03-14T08:51:11;7.75;;;2.15;;
43184;SDS011;28803;52.308;19.096;2023-03-14T08:53:40;4.93;;;2.28;;
43184;SDS011;28803;52.308;19.096;2023-03-14T08:56:08;6.88;;;2.55;;
43184;SDS011;28803;52.308;19.096;2023-03-14T08:58:37;5.07;;;2.42;;
43184;SDS011;28803;52.308;19.096;2023-03-14T09:01:05;4.45;;;2.50;;
43184;SDS011;28803;52.308;19.096;2023-03-14T09:03:32;7.40;;;1.90;;
43184;SDS011;28803;52.308;19.096;2023-03-14T09:06:07;4.57;;;2.03;;
43184;SDS011;28803;52.308;19.096;2023-03-14T09:08:36;4.18;;;1.80;;
43184;SDS011;28803;52.308;19.096;2023-03-14T09:11:08;5.63;;;2.38;;
43184;SDS011;28803;52.308;19.096;2023-03-14T09:13:35;4.63;;;1.90;;
43184;SDS011;28803;52.308;19.096;2023-03-14T09:16:03;4.60;;;1.92;;
43184;SDS011;28803;52.308;19.096;2023-03-14T09:18:31;3.65;;;1.98;;
43184;SDS011;28803;52.308;19.096;2023-03-14T09:20:59;5.63;;;2.45;;
43184;SDS011;28803;52.308;19.096;2023-03-14T09:23:26;3.83;;;1.48;;
43184;SDS011;28803;52.308;19.096;2023-03-14T09:25:57;6.10;;;2.40;;
43184;SDS011;28803;52.308;19.096;2023-03-14T09:28:25;4.22;;;2.08;;
43184;SDS011;28803;52.308;19.096;2023-03-14T09:30:53;4.65;;;1.98;;
43184;SDS011;28803;52.308;19.096;2023-03-14T09:33:21;4.70;;;2.30;;
43184;SDS011;28803;52.308;19.096;2023-03-14T09:35:49;5.22;;;2.22;;
43184;SDS011;28803;52.308;19.096;2023-03-14T09:38:16;4.75;;;1.92;;
43184;SDS011;28803;52.308;19.096;2023-03-14T09:40:44;4.60;;;2.00;;
43184;SDS011;28803;52.308;19.096;2023-03-14T09:43:11;7.20;;;2.45;;
43184;SDS011;28803;52.308;19.096;2023-03-14T09:45:41;7.15;;;2.42;;
43184;SDS011;28803;52.308;19.096;2023-03-14T09:48:22;4.65;;;1.92;;
43184;SDS011;28803;52.308;19.096;2023-03-14T09:50:54;7.30;;;2.10;;
43184;SDS011;28803;52.308;19.096;2023-03-14T09:53:27;5.45;;;2.13;;
43184;SDS011;28803;52.308;19.096;2023-03-14T09:56:23;5.53;;;2.38;;
43184;SDS011;28803;52.308;19.096;2023-03-14T09:59:03;4.70;;;2.05;;
43184;SDS011;28803;52.308;19.096;2023-03-14T10:01:36;4.13;;;2.13;;
43184;SDS011;28803;52.308;19.096;2023-03-14T10:04:10;4.30;;;2.05;;
43184;SDS011;28803;52.308;19.096;2023-03-14T10:06:41;9.52;;;2.40;;
43184;SDS011;28803;52.308;19.096;2023-03-14T10:09:11;5.88;;;2.78;;
43184;SDS011;28803;52.308;19.096;2023-03-14T10:11:56;6.22;;;2.45;;
43184;SDS011;28803;52.308;19.096;2023-03-14T10:14:35;6.35;;;2.17;;
43184;SDS011;28803;52.308;19.096;2023-03-14T10:17:08;4.50;;;2.30;;
43184;SDS011;28803;52.308;19.096;2023-03-14T10:19:38;3.97;;;2.10;;
43184;SDS011;28803;52.308;19.096;2023-03-14T10:22:18;5.97;;;2.13;;
43184;SDS011;28803;52.308;19.096;2023-03-14T10:24:46;4.22;;;2.20;;
43184;SDS011;28803;52.308;19.096;2023-03-14T10:27:20;4.75;;;2.47;;
43184;SDS011;28803;52.308;19.096;2023-03-14T10:29:56;5.30;;;2.53;;
43184;SDS011;28803;52.308;19.096;2023-03-14T10:32:32;4.65;;;2.05;;
43184;SDS011;28803;52.308;19.096;2023-03-14T10:35:05;6.70;;;3.33;;
43184;SDS011;28803;52.308;19.096;2023-03-14T10:38:01;6.55;;;2.38;;
43184;SDS011;28803;52.308;19.096;2023-03-14T10:40:30;4.25;;;2.33;;
43184;SDS011;28803;52.308;19.096;2023-03-14T10:43:11;5.70;;;2.72;;
43184;SDS011;28803;52.308;19.096;2023-03-14T10:45:41;5.50;;;2.22;;
43184;SDS011;28803;52.308;19.096;2023-03-14T10:53:48;5.55;;;2.10;;
43184;SDS011;28803;52.308;19.096;2023-03-14T10:56:22;4.22;;;2.15;;
43184;SDS011;28803;52.308;19.096;2023-03-14T10:58:58;5.72;;;2.15;;
43184;SDS011;28803;52.308;19.096;2023-03-14T11:12:37;4.25;;;2.28;;
43184;SDS011;28803;52.308;19.096;2023-03-14T11:15:31;7.40;;;2.50;;
43184;SDS011;28803;52.308;19.096;2023-03-14T11:20:55;5.63;;;3.08;;
43184;SDS011;28803;52.308;19.096;2023-03-14T11:23:32;7.10;;;2.72;;
43184;SDS011;28803;52.308;19.096;2023-03-14T11:28:57;5.13;;;2.75;;
43184;SDS011;28803;52.308;19.096;2023-03-14T11:31:29;6.50;;;2.65;;
43184;SDS011;28803;52.308;19.096;2023-03-14T11:36:39;5.75;;;2.47;;
43184;SDS011;28803;52.308;19.096;2023-03-14T11:39:13;143.40;;;130.35;;
43184;SDS011;28803;52.308;19.096;2023-03-14T11:41:44;93.85;;;84.47;;
43184;SDS011;28803;52.308;19.096;2023-03-14T11:44:39;15.70;;;10.93;;
43184;SDS011;28803;52.308;19.096;2023-03-14T11:47:07;7.50;;;3.67;;
43184;SDS011;28803;52.308;19.096;2023-03-14T11:49:43;8.07;;;3.55;;
43184;SDS011;28803;52.308;19.096;2023-03-14T11:52:19;11.40;;;4.00;;
43184;SDS011;28803;52.308;19.096;2023-03-14T11:57:45;9.73;;;4.72;;
43184;SDS011;28803;52.308;19.096;2023-03-14T12:00:17;16.25;;;9.68;;
43184;SDS011;28803;52.308;19.096;2023-03-14T12:11:18;11.50;;;6.30;;
43184;SDS011;28803;52.308;19.096;2023-03-14T12:13:50;10.65;;;6.78;;
43184;SDS011;28803;52.308;19.096;2023-03-14T12:18:52;29.83;;;27.25;;
43184;SDS011;28803;52.308;19.096;2023-03-14T12:21:20;16.58;;;14.68;;
43184;SDS011;28803;52.308;19.096;2023-03-14T12:26:21;31.30;;;28.45;;
43184;SDS011;28803;52.308;19.096;2023-03-14T12:29:15;44.45;;;40.35;;
43184;SDS011;28803;52.308;19.096;2023-03-14T12:31:44;35.35;;;31.85;;
43184;SDS011;28803;52.308;19.096;2023-03-14T12:42:37;6.78;;;5.00;;
43184;SDS011;28803;52.308;19.096;2023-03-14T12:50:41;10.63;;;4.57;;
43184;SDS011;28803;52.308;19.096;2023-03-14T12:53:14;10.40;;;4.07;;
43184;SDS011;28803;52.308;19.096;2023-03-14T12:58:20;11.45;;;3.85;;
43184;SDS011;28803;52.308;19.096;2023-03-14T13:01:02;7.30;;;3.33;;
43184;SDS011;28803;52.308;19.096;2023-03-14T13:03:47;7.03;;;3.30;;
43184;SDS011;28803;52.308;19.096;2023-03-14T13:09:34;6.88;;;3.22;;
43184;SDS011;28803;52.308;19.096;2023-03-14T13:12:09;7.50;;;3.10;;
43184;SDS011;28803;52.308;19.096;2023-03-14T13:14:41;5.65;;;2.70;;
43184;SDS011;28803;52.308;19.096;2023-03-14T13:17:12;7.07;;;2.78;;
43184;SDS011;28803;52.308;19.096;2023-03-14T13:20:44;6.45;;;3.00;;
43184;SDS011;28803;52.308;19.096;2023-03-14T13:22:56;6.72;;;3.08;;
43184;SDS011;28803;52.308;19.096;2023-03-14T13:25:23;412.95;;;201.30;;
43184;SDS011;28803;52.308;19.096;2023-03-14T13:27:54;961.45;;;425.92;;
43184;SDS011;28803;52.308;19.096;2023-03-14T13:30:23;160.55;;;138.77;;
43184;SDS011;28803;52.308;19.096;2023-03-14T13:33:03;55.55;;;49.88;;
43184;SDS011;28803;52.308;19.096;2023-03-14T13:35:39;57.40;;;51.90;;
43184;SDS011;28803;52.308;19.096;2023-03-14T13:38:19;42.53;;;38.53;;
43184;SDS011;28803;52.308;19.096;2023-03-14T13:40:49;19.30;;;15.95;;
43184;SDS011;28803;52.308;19.096;2023-03-14T13:43:40;30.52;;;27.20;;
43184;SDS011;28803;52.308;19.096;2023-03-14T13:46:17;23.63;;;21.52;;
43184;SDS011;28803;52.308;19.096;2023-03-14T13:48:53;23.73;;;21.38;;
43184;SDS011;28803;52.308;19.096;2023-03-14T13:51:22;8.40;;;6.78;;
43184;SDS011;28803;52.308;19.096;2023-03-14T13:53:52;12.60;;;10.00;;
43184;SDS011;28803;52.308;19.096;2023-03-14T13:56:21;25.17;;;22.67;;
43184;SDS011;28803;52.308;19.096;2023-03-14T13:58:50;20.23;;;18.17;;
43184;SDS011;28803;52.308;19.096;2023-03-14T14:01:19;9.05;;;6.65;;
43184;SDS011;28803;52.308;19.096;2023-03-14T14:04:02;406.83;;;175.93;;
43184;SDS011;28803;52.308;19.096;2023-03-14T14:06:47;94.10;;;84.70;;
43184;SDS011;28803;52.308;19.096;2023-03-14T14:09:38;178.45;;;161.20;;
43184;SDS011;28803;52.308;19.096;2023-03-14T14:12:21;89.03;;;81.20;;
43184;SDS011;28803;52.308;19.096;2023-03-14T14:17:33;38.83;;;35.08;;
43184;SDS011;28803;52.308;19.096;2023-03-14T14:20:20;17.17;;;12.57;;
43184;SDS011;28803;52.308;19.096;2023-03-14T14:22:47;10.85;;;9.00;;
43184;SDS011;28803;52.308;19.096;2023-03-14T14:25:16;10.50;;;4.72;;
43184;SDS011;28803;52.308;19.096;2023-03-14T14:27:46;9.80;;;5.72;;
43184;SDS011;28803;52.308;19.096;2023-03-14T14:32:48;7.38;;;3.97;;
43184;SDS011;28803;52.308;19.096;2023-03-14T14:35:24;8.35;;;5.40;;
43184;SDS011;28803;52.308;19.096;2023-03-14T14:37:57;11.13;;;3.97;;
43184;SDS011;28803;52.308;19.096;2023-03-14T14:40:26;6.05;;;3.08;;
43184;SDS011;28803;52.308;19.096;2023-03-14T14:42:55;10.43;;;5.15;;
43184;SDS011;28803;52.308;19.096;2023-03-14T14:45:29;7.03;;;3.70;;
43184;SDS011;28803;52.308;19.096;2023-03-14T14:47:58;6.88;;;4.35;;
43184;SDS011;28803;52.308;19.096;2023-03-14T14:50:45;6.65;;;4.18;;
43184;SDS011;28803;52.308;19.096;2023-03-14T14:58:48;29.60;;;26.00;;
43184;SDS011;28803;52.308;19.096;2023-03-14T15:01:17;27.02;;;21.63;;
43184;SDS011;28803;52.308;19.096;2023-03-14T15:03:53;14.82;;;10.15;;
43184;SDS011;28803;52.308;19.096;2023-03-14T15:06:20;13.73;;;8.55;;
43184;SDS011;28803;52.308;19.096;2023-03-14T15:08:48;12.60;;;6.88;;
43184;SDS011;28803;52.308;19.096;2023-03-14T15:11:17;8.73;;;3.83;;
43184;SDS011;28803;52.308;19.096;2023-03-14T15:13:49;5.82;;;4.15;;
43184;SDS011;28803;52.308;19.096;2023-03-14T15:16:25;8.60;;;4.47;;
43184;SDS011;28803;52.308;19.096;2023-03-14T15:18:56;5.55;;;3.05;;
43184;SDS011;28803;52.308;19.096;2023-03-14T15:21:40;8.50;;;4.70;;
43184;SDS011;28803;52.308;19.096;2023-03-14T15:24:08;9.57;;;4.68;;
43184;SDS011;28803;52.308;19.096;2023-03-14T15:26:36;7.25;;;3.42;;
43184;SDS011;28803;52.308;19.096;2023-03-14T15:29:04;11.90;;;3.50;;
43184;SDS011;28803;52.308;19.096;2023-03-14T15:31:34;9.05;;;3.00;;
43184;SDS011;28803;52.308;19.096;2023-03-14T15:34:02;5.93;;;3.17;;
43184;SDS011;28803;52.308;19.096;2023-03-14T15:36:31;5.50;;;3.17;;
43184;SDS011;28803;52.308;19.096;2023-03-14T15:38:59;7.28;;;2.97;;
43184;SDS011;28803;52.308;19.096;2023-03-14T15:41:27;8.15;;;3.50;;
43184;SDS011;28803;52.308;19.096;2023-03-14T15:43:54;8.63;;;3.45;;
43184;SDS011;28803;52.308;19.096;2023-03-14T15:46:22;3.90;;;2.55;;
43184;SDS011;28803;52.308;19.096;2023-03-14T15:48:50;6.22;;;3.03;;
43184;SDS011;28803;52.308;19.096;2023-03-14T15:51:18;116.97;;;52.50;;
43184;SDS011;28803;52.308;19.096;2023-03-14T15:53:46;32.20;;;29.25;;
43184;SDS011;28803;52.308;19.096;2023-03-14T15:56:14;23.35;;;21.08;;
43184;SDS011;28803;52.308;19.096;2023-03-14T15:58:46;32.50;;;29.75;;
43184;SDS011;28803;52.308;19.096;2023-03-14T16:01:15;12.52;;;11.15;;
43184;SDS011;28803;52.308;19.096;2023-03-14T16:03:43;17.13;;;15.18;;
43184;SDS011;28803;52.308;19.096;2023-03-14T16:06:16;27.58;;;24.60;;
43184;SDS011;28803;52.308;19.096;2023-03-14T16:08:43;29.05;;;23.35;;
43184;SDS011;28803;52.308;19.096;2023-03-14T16:11:11;15.57;;;13.60;;
43184;SDS011;28803;52.308;19.096;2023-03-14T16:13:40;13.40;;;9.55;;